Time;durP1;ratioP1;P1;durP2;ratioP2;P2;SDS_P1;SDS_P2;PMS_P1;PMS_P2;Temp;Humidity;BMP_temperature;BMP_pressure;BME280_temperature;BME280_humidity;BME280_pressure;Samples;Min_cycle;Max_cycle;Signal;HPM_P1;HPM_P2
2021/04/03 00:01:14;;;;;;;39.33;23.97;;;;;;;;;;5074161;28;20183;-82
2021/04/03 00:03:40;;;;;;;38.53;23.27;;;;;;;;;;5074165;28;20254;-82
2021/04/03 00:06:05;;;;;;;38.73;23.23;;;;;;;;;;5073759;28;20647;-82
2021/04/03 00:08:30;;;;;;;37.30;22.67;;;;;;;;;;5073868;28;20630;-82
2021/04/03 00:10:57;;;;;;;38.10;23.10;;;;;;;;;;5073846;28;20626;-82
2021/04/03 00:13:24;;;;;;;36.60;22.10;;;;;;;;;;5073679;28;20227;-82
2021/04/03 00:15:49;;;;;;;35.37;20.97;;;;;;;;;;5073510;28;20178;-82
2021/04/03 00:18:16;;;;;;;33.97;21.37;;;;;;;;;;5073787;28;20168;-82
2021/04/03 00:20:41;;;;;;;36.63;21.20;;;;;;;;;;5073980;28;20164;-81
2021/04/03 00:23:07;;;;;;;39.90;22.33;;;;;;;;;;5074034;28;20175;-82
2021/04/03 00:25:32;;;;;;;34.07;20.77;;;;;;;;;;5073989;28;20491;-82
2021/04/03 00:27:58;;;;;;;34.80;21.33;;;;;;;;;;5072256;28;20231;-83
2021/04/03 00:30:24;;;;;;;35.50;21.37;;;;;;;;;;5072797;28;20171;-83
2021/04/03 00:32:55;;;;;;;31.57;20.00;;;;;;;;;;5072953;28;20202;-82
2021/04/03 00:35:22;;;;;;;38.60;22.73;;;;;;;;;;5073393;28;20533;-82
2021/04/03 00:37:48;;;;;;;38.07;22.70;;;;;;;;;;5073362;28;20167;-82
2021/04/03 00:40:17;;;;;;;31.43;19.97;;;;;;;;;;5073239;28;20224;-82
2021/04/03 00:42:43;;;;;;;38.70;21.20;;;;;;;;;;5073528;28;20179;-82
2021/04/03 00:45:08;;;;;;;29.27;18.97;;;;;;;;;;5073535;28;20243;-82
2021/04/03 00:47:33;;;;;;;31.77;19.40;;;;;;;;;;5073551;28;20168;-82
2021/04/03 00:49:59;;;;;;;30.97;18.13;;;;;;;;;;5074453;28;20258;-82
2021/04/03 00:52:24;;;;;;;33.33;18.53;;;;;;;;;;5077965;28;20272;-82
2021/04/03 00:54:49;;;;;;;27.27;17.27;;;;;;;;;;5077731;28;20609;-82
2021/04/03 00:57:15;;;;;;;27.97;16.67;;;;;;;;;;5078253;28;20167;-82
2021/04/03 00:59:40;;;;;;;26.73;16.87;;;;;;;;;;5077916;28;20174;-82
2021/04/03 01:02:05;;;;;;;29.97;17.27;;;;;;;;;;5077453;28;20552;-81
2021/04/03 01:04:32;;;;;;;27.37;16.57;;;;;;;;;;5077748;28;20194;-82
2021/04/03 01:06:57;;;;;;;26.63;15.40;;;;;;;;;;5075954;28;20233;-82
2021/04/03 01:09:23;;;;;;;25.43;16.27;;;;;;;;;;5077216;28;20172;-81
2021/04/03 01:11:53;;;;;;;23.27;15.03;;;;;;;;;;5077493;28;20171;-82
2021/04/03 01:14:27;;;;;;;26.50;15.53;;;;;;;;;;5077545;28;20237;-82
2021/04/03 01:16:57;;;;;;;23.80;15.40;;;;;;;;;;5077140;28;20155;-82
2021/04/03 01:19:41;;;;;;;23.87;15.20;;;;;;;;;;5077181;28;20171;-82
2021/04/03 01:22:24;;;;;;;24.37;15.53;;;;;;;;;;5076663;28;20672;-82
2021/04/03 01:24:50;;;;;;;24.63;15.23;;;;;;;;;;5076639;28;20163;-82
2021/04/03 01:27:18;;;;;;;24.57;15.43;;;;;;;;;;5077098;28;20232;-82
2021/04/03 01:29:47;;;;;;;24.53;15.63;;;;;;;;;;5076512;28;20649;-82
2021/04/03 01:32:15;;;;;;;23.03;15.53;;;;;;;;;;5076736;28;20167;-82
2021/04/03 01:34:41;;;;;;;25.73;16.00;;;;;;;;;;5076266;28;20213;-82
2021/04/03 01:37:10;;;;;;;23.33;16.20;;;;;;;;;;5076921;28;20167;-82
2021/04/03 01:39:36;;;;;;;25.33;16.97;;;;;;;;;;5076234;28;20167;-82
2021/04/03 01:42:04;;;;;;;24.90;16.33;;;;;;;;;;5076583;28;20175;-82
2021/04/03 01:44:38;;;;;;;23.90;16.50;;;;;;;;;;5076358;28;20254;-82
2021/04/03 01:47:04;;;;;;;25.57;16.27;;;;;;;;;;5076139;28;20640;-82
2021/04/03 01:49:30;;;;;;;27.47;16.80;;;;;;;;;;5076416;28;20171;-82
2021/04/03 01:51:56;;;;;;;28.57;17.23;;;;;;;;;;5076058;28;20170;-82
2021/04/03 01:54:22;;;;;;;26.50;16.63;;;;;;;;;;5076159;28;20199;-83
2021/04/03 01:56:48;;;;;;;26.83;16.10;;;;;;;;;;5076301;28;20194;-82
2021/04/03 01:59:15;;;;;;;22.77;15.57;;;;;;;;;;5076542;28;20252;-82
2021/04/03 02:01:41;;;;;;;24.13;15.50;;;;;;;;;;5075564;28;20197;-82
2021/04/03 02:04:07;;;;;;;23.13;15.93;;;;;;;;;;5076484;28;20175;-82
2021/04/03 02:06:36;;;;;;;23.63;15.47;;;;;;;;;;5075880;28;20178;-82
2021/04/03 02:09:04;;;;;;;23.50;15.27;;;;;;;;;;5076050;28;20253;-82
2021/04/03 02:11:31;;;;;;;23.83;15.13;;;;;;;;;;5076251;28;20627;-82
2021/04/03 02:13:57;;;;;;;22.57;14.57;;;;;;;;;;5075678;28;20252;-83
2021/04/03 02:16:23;;;;;;;22.67;14.67;;;;;;;;;;5075643;28;20566;-83
2021/04/03 02:18:49;;;;;;;24.67;15.13;;;;;;;;;;5076185;28;20570;-83
2021/04/03 02:21:14;;;;;;;21.90;14.50;;;;;;;;;;5075817;28;20168;-83
2021/04/03 02:23:40;;;;;;;23.20;15.10;;;;;;;;;;5076432;28;20179;-83
2021/04/03 02:26:06;;;;;;;25.57;15.50;;;;;;;;;;5075521;28;20175;-83
2021/04/03 02:28:33;;;;;;;23.07;14.13;;;;;;;;;;5076516;28;20224;-83
2021/04/03 02:30:58;;;;;;;23.00;14.93;;;;;;;;;;5075697;28;20606;-83
2021/04/03 02:33:23;;;;;;;24.67;15.13;;;;;;;;;;5075483;28;20252;-83
2021/04/03 02:35:49;;;;;;;23.10;14.13;;;;;;;;;;5075244;28;20642;-83
2021/04/03 02:38:15;;;;;;;20.63;13.83;;;;;;;;;;5075496;28;20186;-83
2021/04/03 02:40:40;;;;;;;21.50;14.57;;;;;;;;;;5075791;28;20210;-83
2021/04/03 02:43:11;;;;;;;22.47;14.83;;;;;;;;;;5075240;28;20182;-83
2021/04/03 02:45:46;;;;;;;23.00;14.80;;;;;;;;;;5075092;28;20222;-83
2021/04/03 02:48:17;;;;;;;20.03;14.50;;;;;;;;;;5074949;28;20201;-83
2021/04/03 02:50:43;;;;;;;23.97;15.10;;;;;;;;;;5074974;28;20167;-83
2021/04/03 02:53:09;;;;;;;24.10;16.17;;;;;;;;;;5074878;28;20683;-83
2021/04/03 02:55:35;;;;;;;23.73;15.43;;;;;;;;;;5075731;28;20179;-83
2021/04/03 02:58:01;;;;;;;21.73;14.80;;;;;;;;;;5075696;28;20171;-83
2021/04/03 03:00:27;;;;;;;21.00;15.10;;;;;;;;;;5075224;28;20635;-82
2021/04/03 03:02:52;;;;;;;21.40;15.37;;;;;;;;;;5074692;28;20265;-82
2021/04/03 03:05:18;;;;;;;23.13;14.80;;;;;;;;;;5074914;28;20330;-82
2021/04/03 03:07:45;;;;;;;23.43;14.60;;;;;;;;;;5075160;28;20207;-82
2021/04/03 03:10:12;;;;;;;22.53;14.80;;;;;;;;;;5074874;28;20167;-82
2021/04/03 03:12:38;;;;;;;23.93;15.67;;;;;;;;;;5074449;28;20265;-82
2021/04/03 03:15:04;;;;;;;23.10;15.03;;;;;;;;;;5073854;28;20210;-82
2021/04/03 03:17:29;;;;;;;21.60;14.80;;;;;;;;;;5074996;28;20636;-82
2021/04/03 03:19:55;;;;;;;23.17;14.90;;;;;;;;;;5074820;28;20174;-81
2021/04/03 03:22:21;;;;;;;23.67;16.23;;;;;;;;;;5074308;28;20181;-82
2021/04/03 03:24:46;;;;;;;24.00;15.33;;;;;;;;;;5074290;28;20206;-81
2021/04/03 03:27:12;;;;;;;23.87;16.27;;;;;;;;;;5074577;28;20186;-81
2021/04/03 03:29:38;;;;;;;26.90;15.90;;;;;;;;;;5074219;28;20167;-82
2021/04/03 03:32:04;;;;;;;26.00;16.67;;;;;;;;;;5074189;28;20538;-81
2021/04/03 03:34:30;;;;;;;25.70;17.63;;;;;;;;;;5074049;28;20195;-81
2021/04/03 03:36:56;;;;;;;29.73;18.43;;;;;;;;;;5074377;28;20566;-81
2021/04/03 03:39:21;;;;;;;30.83;17.17;;;;;;;;;;5074856;28;20164;-81
2021/04/03 03:41:47;;;;;;;30.63;18.00;;;;;;;;;;5074243;28;20163;-81
2021/04/03 03:44:12;;;;;;;29.93;17.67;;;;;;;;;;5074185;28;20263;-81
2021/04/03 03:46:38;;;;;;;25.27;17.43;;;;;;;;;;5074155;28;20162;-82
2021/04/03 03:49:04;;;;;;;25.60;16.77;;;;;;;;;;5074221;28;20167;-82
2021/04/03 03:51:29;;;;;;;29.30;18.30;;;;;;;;;;5074181;28;20623;-82
2021/04/03 03:53:55;;;;;;;31.83;19.13;;;;;;;;;;5074630;28;20202;-82
2021/04/03 03:56:20;;;;;;;30.13;18.70;;;;;;;;;;5074094;28;20186;-82
2021/04/03 03:58:45;;;;;;;27.83;18.30;;;;;;;;;;5074609;28;20205;-82
2021/04/03 04:01:11;;;;;;;32.33;19.60;;;;;;;;;;5073952;28;20187;-82
2021/04/03 04:03:37;;;;;;;30.37;19.93;;;;;;;;;;5073907;28;20210;-82
2021/04/03 04:06:02;;;;;;;31.23;19.73;;;;;;;;;;5073750;28;20167;-82
2021/04/03 04:08:28;;;;;;;28.57;18.80;;;;;;;;;;5073950;28;20530;-83
2021/04/03 04:10:53;;;;;;;33.50;20.37;;;;;;;;;;5073980;28;20171;-82
2021/04/03 04:13:19;;;;;;;32.73;19.20;;;;;;;;;;5074267;28;20561;-83
2021/04/03 04:15:44;;;;;;;29.57;20.03;;;;;;;;;;5073662;28;20652;-83
2021/04/03 04:18:09;;;;;;;31.57;19.60;;;;;;;;;;5073596;28;20175;-82
2021/04/03 04:20:35;;;;;;;30.90;19.47;;;;;;;;;;5073447;28;20194;-83
2021/04/03 04:23:00;;;;;;;30.43;19.50;;;;;;;;;;5073756;28;20178;-83
2021/04/03 04:25:26;;;;;;;33.37;19.57;;;;;;;;;;5073235;28;20253;-82
2021/04/03 04:27:51;;;;;;;33.03;20.70;;;;;;;;;;5074137;28;20198;-82
2021/04/03 04:30:17;;;;;;;30.87;20.33;;;;;;;;;;5073906;28;20606;-82
2021/04/03 04:32:44;;;;;;;32.73;21.23;;;;;;;;;;5073343;28;20171;-82
2021/04/03 04:35:10;;;;;;;35.47;20.97;;;;;;;;;;5073315;28;20229;-82
2021/04/03 04:37:36;;;;;;;34.97;21.17;;;;;;;;;;5073937;28;20169;-82
2021/04/03 04:40:02;;;;;;;33.90;21.77;;;;;;;;;;5073597;28;20167;-82
2021/04/03 04:42:27;;;;;;;37.63;21.70;;;;;;;;;;5074168;28;20171;-82
2021/04/03 04:44:52;;;;;;;48.43;22.03;;;;;;;;;;5073287;28;20188;-82
2021/04/03 04:47:18;;;;;;;35.13;21.20;;;;;;;;;;5073688;28;20217;-82
2021/04/03 04:49:44;;;;;;;36.00;21.57;;;;;;;;;;5073379;28;20217;-82
2021/04/03 04:52:09;;;;;;;34.00;21.27;;;;;;;;;;5073202;28;20175;-82
2021/04/03 04:54:35;;;;;;;37.37;22.57;;;;;;;;;;5073703;28;20198;-82
2021/04/03 04:57:00;;;;;;;35.20;21.83;;;;;;;;;;5073462;28;20262;-82
2021/04/03 04:59:25;;;;;;;37.27;22.40;;;;;;;;;;5073171;28;20206;-82
2021/04/03 05:01:51;;;;;;;35.43;21.80;;;;;;;;;;5073665;28;20214;-81
2021/04/03 05:04:16;;;;;;;37.50;23.27;;;;;;;;;;5073768;28;20171;-81
2021/04/03 05:06:41;;;;;;;38.47;24.10;;;;;;;;;;5073499;28;20189;-81
2021/04/03 05:09:06;;;;;;;36.27;22.30;;;;;;;;;;5073659;28;20171;-81
2021/04/03 05:11:32;;;;;;;35.00;20.77;;;;;;;;;;5073359;28;20528;-81
2021/04/03 05:13:57;;;;;;;33.33;21.67;;;;;;;;;;5073668;28;20276;-81
2021/04/03 05:16:22;;;;;;;33.30;21.50;;;;;;;;;;5073752;28;20262;-82
2021/04/03 05:18:48;;;;;;;33.13;20.67;;;;;;;;;;5073535;28;20178;-82
2021/04/03 05:21:13;;;;;;;31.80;21.23;;;;;;;;;;5073141;28;20670;-82
2021/04/03 05:23:38;;;;;;;34.80;21.77;;;;;;;;;;5073565;28;20180;-82
2021/04/03 05:26:04;;;;;;;31.50;21.90;;;;;;;;;;5073134;28;20622;-82
2021/04/03 05:28:29;;;;;;;31.50;22.50;;;;;;;;;;5073073;28;20258;-82
2021/04/03 05:30:54;;;;;;;34.73;21.70;;;;;;;;;;5073444;28;20195;-82
2021/04/03 05:33:19;;;;;;;34.87;20.83;;;;;;;;;;5073832;28;20282;-82
2021/04/03 05:35:45;;;;;;;36.47;23.90;;;;;;;;;;5073192;28;20163;-82
2021/04/03 05:38:10;;;;;;;34.90;22.23;;;;;;;;;;5076187;28;20616;-82
2021/04/03 05:40:35;;;;;;;35.07;22.93;;;;;;;;;;5077011;28;20520;-82
2021/04/03 05:43:04;;;;;;;33.57;23.47;;;;;;;;;;5076813;28;20175;-82
2021/04/03 05:45:29;;;;;;;35.87;23.47;;;;;;;;;;5076434;28;20236;-82
2021/04/03 05:47:55;;;;;;;32.33;22.60;;;;;;;;;;5076658;28;20167;-82
2021/04/03 05:50:20;;;;;;;30.70;22.20;;;;;;;;;;5076463;28;20173;-82
2021/04/03 05:52:46;;;;;;;30.20;22.43;;;;;;;;;;5076069;28;20175;-82
2021/04/03 05:55:11;;;;;;;28.63;22.63;;;;;;;;;;5076987;28;20273;-83
2021/04/03 05:57:37;;;;;;;27.73;21.47;;;;;;;;;;5076395;28;20637;-83
2021/04/03 06:00:06;;;;;;;26.20;20.73;;;;;;;;;;5076340;28;20171;-83
2021/04/03 06:02:35;;;;;;;28.97;20.83;;;;;;;;;;5076357;28;20210;-83
2021/04/03 06:05:01;;;;;;;23.47;18.63;;;;;;;;;;5076026;28;20171;-83
2021/04/03 06:07:27;;;;;;;22.57;18.20;;;;;;;;;;5076092;28;20171;-83
2021/04/03 06:09:53;;;;;;;21.27;17.00;;;;;;;;;;5076067;28;20513;-83
2021/04/03 06:12:37;;;;;;;19.33;15.83;;;;;;;;;;5076181;28;20306;-83
2021/04/03 06:15:03;;;;;;;19.97;15.20;;;;;;;;;;5076112;28;20333;-83
2021/04/03 06:17:28;;;;;;;21.63;16.27;;;;;;;;;;5075990;28;20661;-83
2021/04/03 06:19:54;;;;;;;20.27;13.10;;;;;;;;;;5076125;28;20163;-82
2021/04/03 06:22:19;;;;;;;19.40;16.53;;;;;;;;;;5075935;28;20167;-82
2021/04/03 06:24:45;;;;;;;16.43;13.97;;;;;;;;;;5075554;28;20174;-82
2021/04/03 06:27:11;;;;;;;22.20;18.05;;;;;;;;;;5075701;28;20175;-83
2021/04/03 06:29:41;;;;;;;20.33;15.25;;;;;;;;;;5075414;28;20174;-83
2021/04/03 06:32:29;;;;;;;19.30;17.20;;;;;;;;;;5075703;28;20167;-84
2021/04/03 06:34:55;;;;;;;14.90;13.30;;;;;;;;;;5076104;28;20244;-84
2021/04/03 06:37:30;;;;;;;16.57;12.90;;;;;;;;;;5075769;28;20171;-82
2021/04/03 06:39:56;;;;;;;13.43;10.97;;;;;;;;;;5075452;28;20249;-82
2021/04/03 06:42:38;;;;;;;14.40;12.10;;;;;;;;;;5075175;28;20168;-82
2021/04/03 06:45:22;;;;;;;11.43;10.20;;;;;;;;;;5075145;28;20669;-82
2021/04/03 06:47:48;;;;;;;16.47;12.77;;;;;;;;;;5075570;28;20163;-82
2021/04/03 06:50:14;;;;;;;11.53;9.00;;;;;;;;;;5075032;28;20170;-83
2021/04/03 06:52:40;;;;;;;13.10;10.03;;;;;;;;;;5075518;28;20201;-83
2021/04/03 06:55:06;;;;;;;12.30;9.80;;;;;;;;;;5075175;28;20197;-82
2021/04/03 06:57:32;;;;;;;12.90;10.57;;;;;;;;;;5075192;28;20618;-82
2021/04/03 06:59:58;;;;;;;12.93;9.70;;;;;;;;;;5075345;28;20318;-82
2021/04/03 07:02:24;;;;;;;16.00;11.83;;;;;;;;;;5074971;28;20258;-83
2021/04/03 07:04:51;;;;;;;13.97;8.90;;;;;;;;;;5075347;28;20210;-82
2021/04/03 07:07:18;;;;;;;11.27;8.10;;;;;;;;;;5074792;28;20182;-83
2021/04/03 07:09:43;;;;;;;10.23;7.27;;;;;;;;;;5075494;28;20720;-83
2021/04/03 07:12:11;;;;;;;8.37;6.43;;;;;;;;;;5074878;28;20222;-83
2021/04/03 07:14:38;;;;;;;10.80;8.10;;;;;;;;;;5074690;28;20195;-82
2021/04/03 07:17:04;;;;;;;15.40;9.00;;;;;;;;;;5074384;28;20633;-82
2021/04/03 07:19:30;;;;;;;11.00;7.50;;;;;;;;;;5074601;28;20221;-82
2021/04/03 07:21:55;;;;;;;36.83;16.00;;;;;;;;;;5074509;28;20213;-82
2021/04/03 07:24:24;;;;;;;23.97;11.07;;;;;;;;;;5074912;28;20171;-82
2021/04/03 07:27:19;;;;;;;23.70;10.00;;;;;;;;;;5074255;28;20171;-83
2021/04/03 07:29:49;;;;;;;11.20;8.37;;;;;;;;;;5073235;28;20171;-83
2021/04/03 07:32:35;;;;;;;8.23;7.33;;;;;;;;;;5074266;28;20255;-84
2021/04/03 07:35:21;;;;;;;9.60;6.87;;;;;;;;;;5067687;28;20231;-83
2021/04/03 07:37:53;;;;;;;9.83;6.90;;;;;;;;;;5054659;28;20156;-82
2021/04/03 07:40:24;;;;;;;18.80;12.73;;;;;;;;;;5054476;28;20482;-83
2021/04/03 07:42:50;;;;;;;10.87;8.40;;;;;;;;;;5054638;28;20522;-83
2021/04/03 07:45:33;;;;;;;13.10;9.03;;;;;;;;;;5054832;28;20176;-83
2021/04/03 07:48:14;;;;;;;10.97;8.83;;;;;;;;;;5055098;28;20180;-82
2021/04/03 07:50:39;;;;;;;12.17;9.13;;;;;;;;;;5054034;28;20151;-82
2021/04/03 07:53:05;;;;;;;14.07;9.87;;;;;;;;;;5054105;28;20195;-82
2021/04/03 07:55:37;;;;;;;15.60;11.33;;;;;;;;;;5053297;28;20576;-81
2021/04/03 07:58:32;;;;;;;16.03;10.53;;;;;;;;;;5053807;28;20176;-82
2021/04/03 08:01:00;;;;;;;11.33;8.50;;;;;;;;;;5052648;28;20395;-82
2021/04/03 08:03:30;;;;;;;8.30;6.30;;;;;;;;;;5054123;28;20523;-81
2021/04/03 08:06:04;;;;;;;9.47;7.10;;;;;;;;;;5054424;28;20179;-82
2021/04/03 08:08:39;;;;;;;8.33;7.37;;;;;;;;;;5054356;28;20222;-81
2021/04/03 08:11:12;;;;;;;11.33;7.83;;;;;;;;;;5054868;28;20163;-83
2021/04/03 08:13:41;;;;;;;9.37;6.93;;;;;;;;;;5053442;28;20239;-81
2021/04/03 08:16:10;;;;;;;9.10;7.47;;;;;;;;;;5053978;28;20176;-81
2021/04/03 08:18:36;;;;;;;8.63;7.37;;;;;;;;;;5054132;28;20176;-81
2021/04/03 08:21:02;;;;;;;8.10;6.73;;;;;;;;;;5052617;28;20187;-81
2021/04/03 08:23:39;;;;;;;7.83;7.03;;;;;;;;;;5053527;28;20596;-81
2021/04/03 08:26:05;;;;;;;7.30;5.70;;;;;;;;;;5054103;28;20163;-81
2021/04/03 08:28:32;;;;;;;8.40;6.63;;;;;;;;;;5052782;28;20182;-81
2021/04/03 08:30:59;;;;;;;13.73;7.90;;;;;;;;;;5053274;28;20213;-82
2021/04/03 08:33:29;;;;;;;9.93;8.13;;;;;;;;;;5053456;28;20218;-81
2021/04/03 08:35:55;;;;;;;14.17;9.63;;;;;;;;;;5053825;28;20586;-81
2021/04/03 08:38:26;;;;;;;10.10;7.20;;;;;;;;;;5053764;28;20208;-82
2021/04/03 08:40:54;;;;;;;11.10;8.07;;;;;;;;;;5053581;28;20148;-81
2021/04/03 08:43:24;;;;;;;18.63;10.90;;;;;;;;;;5054079;28;20178;-81
2021/04/03 08:45:52;;;;;;;11.07;8.33;;;;;;;;;;5053426;28;20182;-82
2021/04/03 08:48:18;;;;;;;11.03;8.70;;;;;;;;;;5053597;28;20170;-81
2021/04/03 08:50:45;;;;;;;7.53;6.00;;;;;;;;;;5054011;28;20263;-81
2021/04/03 08:53:10;;;;;;;9.87;7.77;;;;;;;;;;5052215;28;20199;-81
2021/04/03 08:55:35;;;;;;;17.27;10.90;;;;;;;;;;5051463;28;20675;-81
2021/04/03 08:58:02;;;;;;;13.07;9.83;;;;;;;;;;5051988;28;20525;-81
2021/04/03 09:00:27;;;;;;;12.07;9.53;;;;;;;;;;5051710;28;20180;-81
2021/04/03 09:02:53;;;;;;;8.57;7.13;;;;;;;;;;5051827;28;20207;-81
2021/04/03 09:05:19;;;;;;;11.07;8.57;;;;;;;;;;5051474;28;20244;-81
2021/04/03 09:07:44;;;;;;;13.63;10.20;;;;;;;;;;5051930;28;20203;-81
2021/04/03 09:10:10;;;;;;;12.93;10.23;;;;;;;;;;5052410;28;20207;-81
2021/04/03 09:12:36;;;;;;;12.87;10.03;;;;;;;;;;5055508;28;20239;-81
2021/04/03 09:15:03;;;;;;;13.13;9.83;;;;;;;;;;5056857;28;20257;-81
2021/04/03 09:17:29;;;;;;;13.13;10.57;;;;;;;;;;5057122;28;20534;-81
2021/04/03 09:20:05;;;;;;;14.90;11.57;;;;;;;;;;5056925;28;20637;-81
2021/04/03 09:22:36;;;;;;;11.67;9.30;;;;;;;;;;5057054;28;20187;-81
2021/04/03 09:25:03;;;;;;;10.50;8.50;;;;;;;;;;5056326;28;20599;-81
2021/04/03 09:27:28;;;;;;;12.47;10.47;;;;;;;;;;5057024;28;20172;-81
2021/04/03 09:30:05;;;;;;;11.47;9.07;;;;;;;;;;5056713;28;20499;-81
2021/04/03 09:32:38;;;;;;;10.20;7.80;;;;;;;;;;5056209;28;20580;-81
2021/04/03 09:35:03;;;;;;;11.10;9.90;;;;;;;;;;5056871;28;20219;-81
2021/04/03 09:37:29;;;;;;;11.37;9.23;;;;;;;;;;5056445;28;20627;-81
2021/04/03 09:39:56;;;;;;;10.43;9.20;;;;;;;;;;5055008;28;20179;-82
2021/04/03 09:42:22;;;;;;;15.33;12.00;;;;;;;;;;5054843;28;20630;-81
2021/04/03 09:44:48;;;;;;;14.60;11.40;;;;;;;;;;5055612;28;20692;-81
2021/04/03 09:47:13;;;;;;;11.40;9.50;;;;;;;;;;5056154;28;20168;-81
2021/04/03 09:49:39;;;;;;;12.47;9.87;;;;;;;;;;5055582;28;20210;-81
2021/04/03 09:52:06;;;;;;;15.47;11.10;;;;;;;;;;5056213;28;20315;-81
2021/04/03 09:54:31;;;;;;;15.03;11.37;;;;;;;;;;5056523;28;20227;-81
2021/04/03 09:56:56;;;;;;;11.13;9.83;;;;;;;;;;5056806;28;20210;-81
2021/04/03 09:59:22;;;;;;;13.77;11.93;;;;;;;;;;5054804;28;20512;-81
2021/04/03 10:01:47;;;;;;;18.13;16.13;;;;;;;;;;5055669;28;20654;-81
2021/04/03 10:04:13;;;;;;;15.03;12.80;;;;;;;;;;5056045;28;20257;-82
2021/04/03 10:06:38;;;;;;;13.57;11.80;;;;;;;;;;5056004;28;20650;-81
2021/04/03 10:09:04;;;;;;;14.57;11.90;;;;;;;;;;5055054;28;20171;-81
2021/04/03 10:11:29;;;;;;;11.57;10.37;;;;;;;;;;5056276;28;20638;-81
2021/04/03 10:13:54;;;;;;;16.07;12.73;;;;;;;;;;5056158;28;20260;-81
2021/04/03 10:16:20;;;;;;;14.47;12.90;;;;;;;;;;5056046;28;20172;-81
2021/04/03 10:18:45;;;;;;;17.60;15.00;;;;;;;;;;5055752;28;20172;-81
2021/04/03 10:21:11;;;;;;;21.57;13.10;;;;;;;;;;5054542;28;20175;-81
2021/04/03 10:23:36;;;;;;;16.53;14.37;;;;;;;;;;5055374;28;20180;-81
2021/04/03 10:26:02;;;;;;;18.50;14.73;;;;;;;;;;5055752;28;20522;-81
2021/04/03 10:28:28;;;;;;;16.73;13.63;;;;;;;;;;5054426;28;20182;-81
2021/04/03 10:30:53;;;;;;;19.57;15.50;;;;;;;;;;5054378;28;20180;-81
2021/04/03 10:33:18;;;;;;;44.53;27.10;;;;;;;;;;5055583;28;20294;-81
2021/04/03 10:35:44;;;;;;;23.17;15.07;;;;;;;;;;5055676;28;20552;-81
2021/04/03 10:38:09;;;;;;;29.53;19.03;;;;;;;;;;5055681;28;20249;-81
2021/04/03 10:40:34;;;;;;;19.50;14.37;;;;;;;;;;5055919;28;20171;-81
2021/04/03 10:43:00;;;;;;;16.97;12.10;;;;;;;;;;5054276;28;20175;-81
2021/04/03 10:45:25;;;;;;;18.40;13.67;;;;;;;;;;5055416;28;20178;-81
2021/04/03 10:47:51;;;;;;;31.00;17.27;;;;;;;;;;5054906;28;20273;-81
2021/04/03 10:50:16;;;;;;;28.80;17.80;;;;;;;;;;5055282;28;20164;-81
2021/04/03 10:52:42;;;;;;;31.43;18.13;;;;;;;;;;5055194;28;20218;-81
2021/04/03 10:55:07;;;;;;;30.87;17.33;;;;;;;;;;5053586;28;20216;-81
2021/04/03 10:57:33;;;;;;;35.27;16.10;;;;;;;;;;5055431;28;20175;-81
2021/04/03 10:59:58;;;;;;;27.63;15.50;;;;;;;;;;5054035;28;20176;-81
2021/04/03 11:02:23;;;;;;;21.13;14.57;;;;;;;;;;5054935;28;20196;-81
2021/04/03 11:04:49;;;;;;;16.47;12.10;;;;;;;;;;5055475;28;20172;-81
2021/04/03 11:07:14;;;;;;;17.30;11.97;;;;;;;;;;5054744;28;20172;-81
2021/04/03 11:09:40;;;;;;;11.27;8.67;;;;;;;;;;5054697;28;20168;-81
2021/04/03 11:12:05;;;;;;;17.10;11.20;;;;;;;;;;5054978;28;20223;-81
2021/04/03 11:14:30;;;;;;;13.87;10.60;;;;;;;;;;5055035;28;20204;-81
2021/04/03 11:16:56;;;;;;;14.93;10.67;;;;;;;;;;5055119;28;20218;-81
2021/04/03 11:19:21;;;;;;;18.43;12.47;;;;;;;;;;5054526;28;20168;-81
2021/04/03 11:21:47;;;;;;;16.10;12.30;;;;;;;;;;5055005;28;20259;-81
2021/04/03 11:24:12;;;;;;;16.87;12.20;;;;;;;;;;5055255;28;20175;-81
2021/04/03 11:26:38;;;;;;;11.13;9.40;;;;;;;;;;5053970;28;20182;-81
2021/04/03 11:29:03;;;;;;;12.50;9.77;;;;;;;;;;5053669;28;20251;-81
2021/04/03 11:31:29;;;;;;;11.47;9.50;;;;;;;;;;5054563;28;20531;-81
2021/04/03 11:33:54;;;;;;;10.63;9.13;;;;;;;;;;5052726;28;20204;-81
2021/04/03 11:36:20;;;;;;;13.30;10.47;;;;;;;;;;5054439;28;20172;-81
2021/04/03 11:38:45;;;;;;;11.00;9.77;;;;;;;;;;5054888;28;20656;-81
2021/04/03 11:41:10;;;;;;;23.33;17.27;;;;;;;;;;5054388;28;20168;-81
2021/04/03 11:43:36;;;;;;;15.37;12.27;;;;;;;;;;5054876;28;20176;-81
2021/04/03 11:46:01;;;;;;;14.77;11.70;;;;;;;;;;5054243;28;20195;-81
2021/04/03 11:48:27;;;;;;;13.77;12.10;;;;;;;;;;5054349;28;20544;-81
2021/04/03 11:50:52;;;;;;;24.10;20.87;;;;;;;;;;5052904;28;20199;-81
2021/04/03 11:53:18;;;;;;;10.47;9.27;;;;;;;;;;5053203;28;20589;-81
2021/04/03 11:55:43;;;;;;;14.43;11.03;;;;;;;;;;5054491;28;20634;-81
2021/04/03 11:58:08;;;;;;;26.50;20.23;;;;;;;;;;5054579;28;20633;-81
2021/04/03 12:00:34;;;;;;;12.73;9.53;;;;;;;;;;5054209;28;20172;-81
2021/04/03 12:02:59;;;;;;;13.23;11.83;;;;;;;;;;5053868;28;20283;-81
2021/04/03 12:05:24;;;;;;;14.77;12.00;;;;;;;;;;5054559;28;20260;-81
2021/04/03 12:07:50;;;;;;;12.67;11.33;;;;;;;;;;5052695;28;20207;-81
2021/04/03 12:10:16;;;;;;;14.83;11.30;;;;;;;;;;5053984;28;20531;-81
2021/04/03 12:12:42;;;;;;;11.03;9.07;;;;;;;;;;5053758;28;20565;-82
2021/04/03 12:15:08;;;;;;;11.80;9.03;;;;;;;;;;5052577;28;20208;-81
2021/04/03 12:17:34;;;;;;;16.63;14.73;;;;;;;;;;5054132;28;20172;-81
2021/04/03 12:19:59;;;;;;;13.73;11.43;;;;;;;;;;5053901;28;20225;-81
2021/04/03 12:22:24;;;;;;;28.40;22.30;;;;;;;;;;5053789;28;20164;-81
2021/04/03 12:24:50;;;;;;;31.40;25.00;;;;;;;;;;5053538;28;20172;-81
2021/04/03 12:27:15;;;;;;;21.13;15.70;;;;;;;;;;5054062;28;20301;-81
2021/04/03 12:29:40;;;;;;;16.90;14.77;;;;;;;;;;5053471;28;20220;-81
2021/04/03 12:32:06;;;;;;;29.07;21.83;;;;;;;;;;5052893;28;20175;-81
2021/04/03 12:34:31;;;;;;;12.03;10.07;;;;;;;;;;5053285;28;20650;-81
2021/04/03 12:36:57;;;;;;;18.97;16.20;;;;;;;;;;5053473;28;20254;-81
2021/04/03 12:39:22;;;;;;;15.53;12.23;;;;;;;;;;5054065;28;20261;-81
2021/04/03 12:41:47;;;;;;;21.70;17.33;;;;;;;;;;5053389;28;20557;-81
2021/04/03 12:44:12;;;;;;;9.20;8.33;;;;;;;;;;5052931;28;20207;-81
2021/04/03 12:46:38;;;;;;;10.60;9.50;;;;;;;;;;5055711;28;20203;-81
2021/04/03 12:49:03;;;;;;;12.67;11.43;;;;;;;;;;5056959;28;20253;-81
2021/04/03 12:51:29;;;;;;;7.00;6.33;;;;;;;;;;5056901;28;20656;-81
2021/04/03 12:53:54;;;;;;;7.17;6.47;;;;;;;;;;5057234;28;20226;-81
2021/04/03 12:56:19;;;;;;;8.57;7.67;;;;;;;;;;5057567;28;20174;-81
2021/04/03 12:58:45;;;;;;;9.97;8.47;;;;;;;;;;5057514;28;20164;-81
2021/04/03 13:01:10;;;;;;;14.40;8.33;;;;;;;;;;5058197;28;20172;-81
2021/04/03 13:03:35;;;;;;;9.90;8.13;;;;;;;;;;5056777;28;20183;-81
2021/04/03 13:06:01;;;;;;;15.67;10.53;;;;;;;;;;5056209;28;20531;-81
2021/04/03 13:08:27;;;;;;;10.20;8.67;;;;;;;;;;5057864;28;20593;-81
2021/04/03 13:10:52;;;;;;;10.83;9.63;;;;;;;;;;5055796;28;20178;-81
2021/04/03 13:13:17;;;;;;;10.87;8.97;;;;;;;;;;5056798;28;20230;-81
2021/04/03 13:15:43;;;;;;;9.57;8.00;;;;;;;;;;5057369;28;20168;-82
2021/04/03 13:18:08;;;;;;;11.80;9.73;;;;;;;;;;5057049;28;20183;-81
2021/04/03 13:20:35;;;;;;;7.90;7.10;;;;;;;;;;5057320;28;20181;-81
2021/04/03 13:23:02;;;;;;;9.27;7.77;;;;;;;;;;5057175;28;20182;-81
2021/04/03 13:25:28;;;;;;;9.47;7.50;;;;;;;;;;5055861;28;20175;-81
2021/04/03 13:27:53;;;;;;;10.90;7.03;;;;;;;;;;5057049;28;20254;-81
2021/04/03 13:30:20;;;;;;;8.47;6.47;;;;;;;;;;5056935;28;20191;-81
2021/04/03 13:32:45;;;;;;;5.53;4.63;;;;;;;;;;5055560;28;20178;-81
2021/04/03 13:35:11;;;;;;;5.40;4.10;;;;;;;;;;5056626;28;20200;-81
2021/04/03 13:37:36;;;;;;;5.50;4.47;;;;;;;;;;5055294;28;20586;-81
2021/04/03 13:40:02;;;;;;;6.30;5.70;;;;;;;;;;5057168;28;20176;-81
2021/04/03 13:42:27;;;;;;;5.27;4.30;;;;;;;;;;5056859;28;20176;-81
2021/04/03 13:44:53;;;;;;;6.50;5.10;;;;;;;;;;5055266;28;20176;-81
2021/04/03 13:47:18;;;;;;;4.93;4.40;;;;;;;;;;5055231;28;20341;-82
2021/04/03 13:49:44;;;;;;;6.20;5.60;;;;;;;;;;5056982;28;20168;-82
2021/04/03 13:52:09;;;;;;;5.37;4.87;;;;;;;;;;5055116;28;20265;-81
2021/04/03 13:54:34;;;;;;;7.20;5.30;;;;;;;;;;5056644;28;20310;-81
2021/04/03 13:57:00;;;;;;;5.07;4.60;;;;;;;;;;5055844;28;20552;-81
2021/04/03 13:59:25;;;;;;;4.77;4.27;;;;;;;;;;5056249;28;20493;-81
2021/04/03 14:01:50;;;;;;;6.43;4.83;;;;;;;;;;5055855;28;20606;-82
2021/04/03 14:04:16;;;;;;;6.17;4.60;;;;;;;;;;5056101;28;20179;-81
2021/04/03 14:06:41;;;;;;;5.37;4.77;;;;;;;;;;5055162;28;20676;-81
2021/04/03 14:09:06;;;;;;;5.73;4.70;;;;;;;;;;5056155;28;20168;-81
2021/04/03 14:11:32;;;;;;;6.33;5.47;;;;;;;;;;5055837;28;20164;-81
2021/04/03 14:13:57;;;;;;;7.23;6.17;;;;;;;;;;5054548;28;20318;-81
2021/04/03 14:16:22;;;;;;;6.90;5.80;;;;;;;;;;5054854;28;20199;-81
2021/04/03 14:18:48;;;;;;;6.73;5.73;;;;;;;;;;5055995;28;20175;-81
2021/04/03 14:21:13;;;;;;;7.00;5.03;;;;;;;;;;5054433;28;20182;-81